Flight Track Log - Related Links

Times and Time Zones

All times are in EDT time to prevent confusion due to time zone crossing. See the EJA922 flight status page for this flight to view local times or setup timezone preferences in your user account.

Time Position Orientation Groundspeed Altitude Reporting Facility
EDT Latitude Longitude Course Direction KTS MPH feet Rate Location/Type
Sun 11:40:16 AM 34.1758 -118.3528 216° Southwest 186 214 39,000  Level Los Angeles Center
Sun 11:41:19 AM 34.1350 -118.3883 216° Southwest 210 242 4,000 -16,113 Descending Los Angeles Center
Sun 11:42:20 AM 34.1531 -118.4750 284° West 283 326 5,700 1,805 Climbing Los Angeles Center
Sun 11:43:22 AM 34.2294 -118.4458 18° North 293 337 7,700 1,984 Climbing Los Angeles Center
Sun 11:44:24 AM 34.3056 -118.4078 22° Northeast 294 338 9,800 1,694 Climbing Los Angeles Center
Sun 11:45:26 AM 34.3881 -118.3675 22° Northeast 326 375 11,200 1,306 Climbing Los Angeles Center
Sun 11:46:28 AM 34.4756 -118.3131 27° Northeast 352 405 12,500 1,452 Climbing Los Angeles Center
Sun 11:47:30 AM 34.5364 -118.2153 53° Northeast 359 413 14,200 1,597 Climbing Los Angeles Center
Sun 11:48:32 AM 34.6044 -118.1058 53° Northeast 366 421 15,800 1,500 Climbing Los Angeles Center
Sun 11:49:34 AM 34.6394 -117.9922 69° East 368 423 17,300 1,210 Climbing Los Angeles Center
Sun 11:50:36 AM 34.6525 -117.8658 83° East 375 432 18,300 1,065 Climbing Los Angeles Center
Sun 11:51:38 AM 34.6689 -117.7408 81° East 375 432 19,500 1,210 Climbing Los Angeles Center
Sun 11:52:40 AM 34.7067 -117.5925 73° East 383 441 20,800 1,065 Climbing Los Angeles Center
Sun 11:53:42 AM 34.7392 -117.4669 72° East 389 448 21,700 919 Climbing Los Angeles Center
Sun 11:54:44 AM 34.7717 -117.3406 73° East 393 452 22,700 968 Climbing Los Angeles Center
Sun 11:55:46 AM 34.8036 -117.2128 73° East 395 455 23,700 1,065 Climbing Los Angeles Center
Sun 11:56:48 AM 34.8428 -117.0569 73° East 401 461 24,900 1,065 Climbing Los Angeles Center
Sun 11:57:50 AM 34.8753 -116.9253 73° East 405 466 25,900 968 Climbing Los Angeles Center
Sun 11:58:52 AM 34.9086 -116.7922 73° East 409 471 26,900 968 Climbing Los Angeles Center
Sun 11:59:54 AM 34.9414 -116.6572 73° East 415 478 27,900 968 Climbing Los Angeles Center
Sun 12:00:56 PM 34.9961 -116.5339 62° Northeast 420 483 28,900 968 Climbing Los Angeles Center
Sun 12:01:58 PM 35.0794 -116.4292 46° Northeast 425 489 29,900 1,016 Climbing Los Angeles Center
Sun 12:03:00 PM 35.1800 -116.3022 46° Northeast 432 497 31,000 968 Climbing Los Angeles Center
Sun 12:04:02 PM 35.2658 -116.1953 45° Northeast 437 503 31,900 871 Climbing Los Angeles Center
Sun 12:05:04 PM 35.3500 -116.0889 46° Northeast 448 516 32,800 871 Climbing Los Angeles Center
Sun 12:06:06 PM 35.4406 -115.9719 46° Northeast 453 521 33,700 919 Climbing Los Angeles Center
Sun 12:07:08 PM 35.5472 -115.8428 45° Northeast 464 534 34,700 1,161 Climbing Los Angeles Center
Sun 12:08:10 PM 35.6367 -115.7303 46° Northeast 463 533 36,100 1,210 Climbing Los Angeles Center
Sun 12:09:12 PM 35.7261 -115.6150 46° Northeast 463 533 37,200 1,161 Climbing Los Angeles Center
Sun 12:10:14 PM 35.8150 -115.5008 46° Northeast 463 533 38,500 871 Climbing Los Angeles Center
Sun 12:11:16 PM 35.9033 -115.3861 46° Northeast 463 533 39,000 581 Climbing Los Angeles Center
Sun 12:12:18 PM 36.0144 -115.2422 46° Northeast 480 552 39,700 823 Climbing Los Angeles Center
Sun 12:13:20 PM 36.0933 -115.1100 54° Northeast 484 557 40,700 629 Climbing Los Angeles Center
Sun 12:14:22 PM 36.1411 -114.9586 69° East 479 551 41,000 145 Climbing Los Angeles Center
Sun 12:15:24 PM 36.1881 -114.8031 69° East 479 551 41,000  Level Los Angeles Center
Sun 12:16:27 PM 36.2367 -114.6425 69° East 492 566 41,000  Level Los Angeles Center
Sun 12:17:29 PM 36.2953 -114.4508 69° East 495 570 41,000  Level Los Angeles Center
Sun 12:18:31 PM 36.3425 -114.2911 70° East 495 570 41,000  Level Los Angeles Center
Sun 12:19:33 PM 36.3911 -114.1317 69° East 495 570 41,000  Level Los Angeles Center
Sun 12:20:35 PM 36.4394 -113.9711 69° East 495 570 41,000  Level Los Angeles Center
Sun 12:21:37 PM 36.4869 -113.8117 70° East 495 570 41,000  Level Los Angeles Center
Sun 12:22:39 PM 36.5350 -113.6517 69° East 495 570 41,000  Level Los Angeles Center
Sun 12:23:41 PM 36.5908 -113.4586 70° East 495 570 41,000  Level Los Angeles Center
Sun 12:24:43 PM 36.6381 -113.2989 70° East 495 570 41,000  Level Los Angeles Center
Sun 12:25:45 PM 36.6842 -113.1389 70° East 495 570 41,000  Level Los Angeles Center
Sun 12:26:47 PM 36.7300 -112.9786 70° East 495 570 41,000  Level Los Angeles Center
Sun 12:27:49 PM 36.7758 -112.8183 70° East 494 568 41,000  Level Los Angeles Center
Sun 12:28:51 PM 36.8222 -112.6556 70° East 496 571 41,000  Level Los Angeles Center
Sun 12:29:53 PM 36.8772 -112.4617 70° East 497 572 41,000  Level Los Angeles Center
Sun 12:30:55 PM 36.9225 -112.3000 71° East 497 572 41,000  Level Los Angeles Center
Sun 12:31:57 PM 36.9686 -112.1383 70° East 497 572 41,000  Level Los Angeles Center
Sun 12:32:59 PM 37.0139 -111.9750 71° East 497 572 41,000  Level Los Angeles Center
Sun 12:34:01 PM 37.0594 -111.8125 71° East 498 573 41,000  Level Los Angeles Center
Sun 12:35:03 PM 37.1136 -111.6161 71° East 499 574 41,000  Level Los Angeles Center
Sun 12:36:05 PM 37.1581 -111.4519 71° East 499 574 41,000  Level Los Angeles Center
Sun 12:37:07 PM 37.2022 -111.2875 71° East 499 574 41,000  Level Los Angeles Center
Sun 12:38:35 PM 37.2653 -111.0575 71° East 500 575 41,000  Level Denver Center
Sun 12:39:38 PM 37.3169 -110.8606 72° East 498 573 41,000  Level Denver Center
Sun 12:40:40 PM 37.3608 -110.6953 71° East 498 573 41,000  Level Denver Center
Sun 12:41:42 PM 37.4050 -110.5294 71° East 498 573 41,000  Level Denver Center
Sun 12:42:44 PM 37.4475 -110.3642 72° East 498 573 41,000  Level Denver Center
Sun 12:43:46 PM 37.4942 -110.1856 72° East 501 577 41,000  Level Denver Center
Sun 12:44:48 PM 37.5347 -110.0264 72° East 501 577 41,000  Level Denver Center
Sun 12:45:50 PM 37.5814 -109.8386 73° East 501 577 41,000  Level Denver Center
Sun 12:46:52 PM 37.6231 -109.6775 72° East 501 577 41,000  Level Denver Center
Sun 12:47:54 PM 37.6717 -109.4883 72° East 504 580 41,000  Level Denver Center
Sun 12:48:56 PM 37.7117 -109.3247 73° East 505 581 41,000  Level Denver Center
Sun 12:49:58 PM 37.7597 -109.1356 72° East 506 582 41,000  Level Denver Center
Sun 12:51:00 PM 37.7994 -108.9708 73° East 507 583 41,000  Level Denver Center
Sun 12:52:03 PM 37.8603 -108.7853 67° East 508 585 41,000  Level Denver Center
Sun 12:53:05 PM 37.9150 -108.6278 66° East 509 586 41,000  Level Denver Center
Sun 12:54:07 PM 37.9789 -108.4425 66° East 510 587 41,000  Level Denver Center
Sun 12:55:09 PM 38.0336 -108.2836 66° East 510 587 41,000  Level Denver Center
Sun 12:56:11 PM 38.0894 -108.1244 66° East 512 589 41,000  Level Denver Center
Sun 12:57:13 PM 38.1528 -107.9361 67° East 514 592 41,000  Level Denver Center
Sun 12:58:15 PM 38.2072 -107.7739 67° East 518 596 41,000  Level Denver Center
Sun 12:59:17 PM 38.2708 -107.5853 67° East 518 596 41,000  Level Denver Center
Sun 01:00:19 PM 38.3264 -107.4236 66° East 518 596 41,000  Level Denver Center
Sun 01:01:21 PM 38.3825 -107.2536 67° East 518 596 41,000  Level Denver Center
Sun 01:02:24 PM 38.4389 -107.0844 67° East 519 597 41,000  Level Denver Center
Sun 01:03:26 PM 38.5286 -106.8958 59° Northeast 519 597 41,000  Level Denver Center
Sun 01:04:28 PM 38.6094 -106.7431 56° Northeast 521 600 41,000  Level Denver Center
Sun 01:05:30 PM 38.6897 -106.5883 56° Northeast 521 600 41,000  Level Denver Center
Sun 01:06:32 PM 38.7703 -106.4344 56° Northeast 522 601 41,000  Level Denver Center
Sun 01:07:34 PM 38.8514 -106.2786 56° Northeast 522 601 41,000  Level Denver Center
Sun 01:08:36 PM 38.9450 -106.0958 57° Northeast 523 602 41,000  Level Denver Center
Sun 01:09:38 PM 39.0256 -105.9389 57° Northeast 523 602 41,000  Level Denver Center
Sun 01:10:40 PM 39.1064 -105.7817 56° Northeast 523 602 41,000  Level Denver Center
Sun 01:11:42 PM 39.1886 -105.6222 56° Northeast 531 611 41,000  Level Denver Center
Sun 01:12:44 PM 39.2694 -105.4639 57° Northeast 531 611 41,000  Level Denver Center
Sun 01:13:47 PM 39.3664 -105.2711 57° Northeast 531 611 41,000  Level Denver Center
Sun 01:14:49 PM 39.4475 -105.1108 57° Northeast 532 612 41,000  Level Denver Center
Sun 01:15:51 PM 39.5281 -104.9486 57° Northeast 532 612 41,000  Level Denver Center
Sun 01:16:53 PM 39.6111 -104.7856 56° Northeast 535 616 41,000  Level Denver Center
Sun 01:17:55 PM 39.6944 -104.5975 60° Northeast 549 632 41,000  Level Denver Center
Sun 01:18:57 PM 39.7378 -104.4072 73° East 558 642 41,000  Level Denver Center
Sun 01:19:59 PM 39.7792 -104.2178 74° East 548 631 41,000  Level Denver Center
Sun 01:21:01 PM 39.8219 -104.0253 74° East 549 632 41,000  Level Denver Center
Sun 01:22:03 PM 39.8717 -103.7947 74° East 551 634 41,000  Level Denver Center
Sun 01:23:05 PM 39.9133 -103.6022 74° East 553 636 41,000  Level Denver Center
Sun 01:24:08 PM 39.9556 -103.4078 74° East 557 641 41,000  Level Denver Center
Sun 01:25:10 PM 39.9964 -103.2139 75° East 557 641 41,000  Level Denver Center
Sun 01:26:12 PM 40.0364 -103.0192 75° East 557 641 41,000  Level Denver Center
Sun 01:27:14 PM 40.0775 -102.8253 74° East 557 641 41,000  Level Denver Center
Sun 01:28:16 PM 40.1247 -102.5967 75° East 558 642 41,000  Level Denver Center
Sun 01:29:18 PM 40.1628 -102.4075 75° East 559 643 41,000  Level Denver Center
Sun 01:30:20 PM 40.2078 -102.1872 75° East 559 643 41,000  Level Denver Center
Sun 01:31:22 PM 40.2461 -101.9983 75° East 559 643 41,000  Level Denver Center
Sun 01:32:24 PM 40.2892 -101.7767 76° East 562 647 41,000  Level Denver Center
Sun 01:33:27 PM 40.3267 -101.5858 75° East 566 651 41,000  Level Denver Center
Sun 01:34:29 PM 40.3697 -101.3636 76° East 566 651 41,000  Level Denver Center
Sun 01:35:31 PM 40.4053 -101.1714 76° East 567 652 41,000  Level Denver Center
Sun 01:36:33 PM 40.4492 -100.9483 75° East 567 652 41,000  Level Denver Center
Sun 01:37:35 PM 40.5094 -100.7678 66° East 570 656 41,000  Level Denver Center
Sun 01:38:37 PM 40.5869 -100.5631 63° Northeast 569 655 41,000  Level Denver Center
Sun 01:39:39 PM 40.6519 -100.3850 64° Northeast 571 657 41,000  Level Denver Center
Sun 01:40:41 PM 40.7294 -100.1781 64° Northeast 570 656 41,000  Level Denver Center
Sun 01:41:43 PM 40.7942 -99.9994 64° Northeast 569 655 41,000  Level Denver Center
Sun 01:42:46 PM 40.8636 -99.8075 64° Northeast 570 656 41,000  Level Denver Center
Sun 01:43:48 PM 40.9317 -99.6186 64° Northeast 570 656 41,000  Level Denver Center
Sun 01:44:50 PM 41.0139 -99.3892 65° Northeast 571 657 41,000  Level Denver Center
Sun 01:45:52 PM 41.0819 -99.1978 65° Northeast 572 658 41,000  Level Denver Center
Sun 01:46:24 PM 41.1142 -99.1069 65° Northeast 573 659 41,000  Level Minneapolis Center
Sun 01:47:26 PM 41.1822 -98.9147 65° Northeast 574 661 41,000  Level Minneapolis Center
Sun 01:48:28 PM 41.2536 -98.7156 64° Northeast 589 678 41,000  Level Minneapolis Center
Sun 01:50:00 PM 41.3572 -98.4067 66° East 578 665 41,000  Level Denver Center
Sun 01:50:32 PM 41.3900 -98.2844 70° East 577 664 41,000  Level Minneapolis Center
Sun 01:51:34 PM 41.4236 -98.0722 78° East 585 673 41,000  Level Minneapolis Center
Sun 01:52:36 PM 41.4575 -97.8628 78° East 584 672 41,000  Level Minneapolis Center
Sun 01:53:39 PM 41.4911 -97.6528 78° East 584 672 41,000  Level Minneapolis Center
Sun 01:57:47 PM 41.6353 -96.7597 79° East 584 672 41,000  Level Minneapolis Center
Sun 01:58:49 PM 41.6689 -96.5450 78° East 585 673 41,000  Level Minneapolis Center
Sun 01:59:51 PM 41.7017 -96.3269 79° East 587 676 41,000  Level Minneapolis Center
Sun 02:00:53 PM 41.7342 -96.1103 79° East 589 678 41,000  Level Minneapolis Center
Sun 02:01:55 PM 41.7658 -95.8922 79° East 589 678 41,000  Level Minneapolis Center
Sun 02:02:00 PM 41.7266 -96.1293 79° East  Level FlightAware Approximate
Sun 02:02:58 PM 41.7972 -95.6750 79° East 589 678 41,000  Level Minneapolis Center
Sun 02:03:00 PM 41.7523 -95.9458 79° East  Level FlightAware Approximate
Sun 02:04:00 PM 41.8283 -95.4578 79° East 590 679 41,000  Level Minneapolis Center
Sun 02:05:02 PM 41.8650 -95.1981 79° East 590 679 41,000  Level Minneapolis Center
Sun 02:06:04 PM 41.8953 -94.9803 79° East 590 679 41,000  Level Minneapolis Center
Sun 02:07:06 PM 41.9244 -94.7636 80° East 590 679 41,000  Level Minneapolis Center
Sun 02:08:08 PM 41.9544 -94.5456 79° East 591 680 41,000  Level Minneapolis Center
Sun 02:09:10 PM 41.9825 -94.3272 80° East 591 680 41,000  Level Minneapolis Center
Sun 02:10:12 PM 42.0122 -94.1103 79° East 592 681 41,000  Level Minneapolis Center
Sun 02:11:14 PM 42.0447 -93.8575 80° East 592 681 41,000  Level Minneapolis Center
Sun 02:12:17 PM 42.0744 -93.6275 80° East 593 682 41,000  Level Minneapolis Center
Sun 02:13:19 PM 42.1006 -93.4106 81° East 593 682 41,000  Level Minneapolis Center
Sun 02:14:21 PM 42.1272 -93.1936 81° East 593 682 41,000  Level Minneapolis Center
Sun 02:15:23 PM 42.1539 -92.9767 81° East 593 682 41,000  Level Minneapolis Center
Sun 02:16:25 PM 42.1842 -92.7164 81° East 593 682 41,000  Level Minneapolis Center
Sun 02:17:27 PM 42.2103 -92.4997 81° East 593 682 41,000  Level Minneapolis Center
Sun 02:18:29 PM 42.2353 -92.2833 81° East 593 682 41,000  Level Minneapolis Center
Sun 02:19:31 PM 42.2586 -92.0667 82° East 592 681 41,000  Level Minneapolis Center
Sun 02:20:33 PM 42.2833 -91.8489 81° East 593 682 41,000  Level Minneapolis Center
Sun 02:21:35 PM 42.3100 -91.5875 82° East 593 682 41,000  Level Minneapolis Center
Sun 02:22:37 PM 42.3333 -91.3686 82° East 596 686 41,000  Level Minneapolis Center
Sun 02:23:40 PM 42.3561 -91.1497 82° East 596 686 41,000  Level Minneapolis Center
Sun 02:24:42 PM 42.3817 -90.8950 82° East 597 687 41,000  Level Minneapolis Center
Sun 02:26:02 PM 42.3981 -90.6172 85° East 606 697 41,000  Level Chicago Center
Sun 02:27:04 PM 42.3825 -90.3964 95° East 603 694 41,000  Level Chicago Center
Sun 02:28:06 PM 42.3689 -90.1272 94° East 603 694 41,000  Level Chicago Center
Sun 02:29:08 PM 42.3544 -89.9008 95° East 603 694 41,000  Level Chicago Center
Sun 02:30:10 PM 42.3414 -89.6769 94° East 602 693 41,000  Level Chicago Center
Sun 02:31:12 PM 42.3275 -89.4525 95° East 602 693 41,000  Level Chicago Center
Sun 02:32:14 PM 42.3139 -89.2278 95° East 603 694 41,000  Level Chicago Center
Sun 02:33:16 PM 42.2964 -88.9589 95° East 604 695 41,000  Level Chicago Center
Sun 02:34:18 PM 42.2817 -88.7639 96° East 604 695 41,000  Level Chicago Center
Sun 02:35:20 PM 42.2628 -88.4928 95° East 605 696 41,000  Level Chicago Center
Sun 02:36:22 PM 42.2461 -88.2675 96° East 604 695 41,000  Level Chicago Center
Sun 02:37:24 PM 42.2283 -88.0419 96° East 603 694 41,000  Level Chicago Center
Sun 02:38:27 PM 42.2142 -87.8172 95° East 602 693 41,000  Level Chicago Center
Sun 02:39:29 PM 42.2022 -87.5917 94° East 602 693 41,000  Level Chicago Center
Sun 02:40:31 PM 42.1897 -87.3669 94° East 601 692 41,000  Level Chicago Center
Sun 02:41:33 PM 42.1775 -87.1419 94° East 601 692 41,000  Level Chicago Center
Sun 02:42:35 PM 42.1592 -86.8694 95° East 605 696 41,000  Level Chicago Center
Sun 02:43:37 PM 42.1478 -86.6633 94° East 603 694 41,000  Level Chicago Center
Sun 02:44:39 PM 42.1336 -86.4392 95° East 600 690 41,000  Level Chicago Center
Sun 02:45:41 PM 42.1183 -86.2158 95° East 599 689 41,000  Level Chicago Center
Sun 02:46:44 PM 42.1011 -85.9631 95° East 599 689 41,000  Level Chicago Center
Sun 02:47:46 PM 42.0853 -85.7411 95° East 600 690 41,000  Level Chicago Center
Sun 02:48:48 PM 42.0697 -85.5197 95° East 599 689 41,000  Level Chicago Center
Sun 02:49:50 PM 42.0506 -85.2542 95° East 597 687 41,000  Level Chicago Center
Sun 02:50:52 PM 42.0208 -85.0322 100° East 605 696 41,000  Level Chicago Center
Sun 02:51:54 PM 41.9856 -84.8178 102° East 599 689 41,000  Level Chicago Center
Sun 02:52:56 PM 41.9506 -84.6125 103° East 595 685 41,000  Level Chicago Center
Sun 02:53:58 PM 41.9083 -84.3525 102° East 595 685 41,000  Level Chicago Center
Sun 02:55:00 PM 41.8808 -84.1333 99° East 595 685 41,000  Level Chicago Center
Sun 02:56:02 PM 41.8581 -83.9144 98° East 595 685 41,000  Level Chicago Center
Sun 02:57:16 PM 41.8297 -83.6742 99° East 596 686 41,000  Level Cleveland Center
Sun 02:58:18 PM 41.7844 -83.4183 103° East 596 686 41,000  Level Cleveland Center
Sun 02:59:19 PM 41.7242 -83.2161 112° Southeast 594 684 41,000  Level Cleveland Center
Sun 03:00:21 PM 41.6644 -83.0136 111° Southeast 593 682 41,000  Level Cleveland Center
Sun 03:01:23 PM 41.6058 -82.8147 111° Southeast 592 681 41,000  Level Cleveland Center
Sun 03:02:25 PM 41.5342 -82.5789 112° Southeast 588 677 41,000  Level Cleveland Center
Sun 03:03:26 PM 41.4733 -82.3783 112° Southeast 583 671 41,000  Level Cleveland Center
Sun 03:04:28 PM 41.4119 -82.1789 112° Southeast 582 670 41,000  Level Cleveland Center
Sun 03:05:30 PM 41.3583 -82.0064 112° Southeast 574 661 41,000  Level Cleveland Center
Sun 03:06:32 PM 41.2861 -81.7733 112° Southeast 571 657 41,000  Level Cleveland Center
Sun 03:07:34 PM 41.2233 -81.5786 113° Southeast 577 664 41,000  Level Cleveland Center
Sun 03:08:36 PM 41.1619 -81.3792 112° Southeast 562 647 41,000  Level Cleveland Center
Sun 03:09:37 PM 41.1006 -81.1869 113° Southeast 565 650 41,000  Level Cleveland Center
Sun 03:10:39 PM 41.0419 -81.0058 113° Southeast 564 649 41,000  Level Cleveland Center
Sun 03:11:41 PM 40.9808 -80.8161 113° Southeast 562 647 41,000  Level Cleveland Center
Sun 03:12:43 PM 40.9078 -80.5903 113° Southeast 559 643 41,000  Level Cleveland Center
Sun 03:13:45 PM 40.8442 -80.3944 113° Southeast 559 643 41,000  Level Cleveland Center
Sun 03:14:47 PM 40.7903 -80.2336 114° Southeast 559 643 41,000  Level Cleveland Center
Sun 03:15:49 PM 40.7175 -80.0106 113° Southeast 559 643 41,000  Level Cleveland Center
Sun 03:16:51 PM 40.6569 -79.8308 114° Southeast 560 644 41,000  Level Cleveland Center
Sun 03:17:53 PM 40.5939 -79.6433 114° Southeast 560 644 41,000  Level Cleveland Center
Sun 03:18:55 PM 40.5358 -79.4528 112° Southeast 560 644 41,000  Level Cleveland Center
Sun 03:19:57 PM 40.5158 -79.2572 98° East 551 634 41,000 -339 Level Cleveland Center
Sun 03:20:59 PM 40.4933 -79.0161 97° East 554 638 40,300 -1,756 Descending Cleveland Center
Sun 03:22:00 PM 40.4778 -78.8217 96° East 545 627 37,400 -2,878 Descending Cleveland Center
Sun 03:23:02 PM 40.4581 -78.6197 97° East 559 643 34,400 -2,806 Descending Cleveland Center
Sun 03:24:04 PM 40.4403 -78.4250 97° East 552 635 31,600 -3,048 Descending Cleveland Center
Sun 03:25:06 PM 40.4172 -78.1872 97° East 552 635 28,100 -3,048 Descending Cleveland Center
Sun 03:26:08 PM 40.3989 -77.9911 97° East 552 635 25,300 -1,500 Descending Cleveland Center
Sun 03:27:10 PM 40.3800 -77.8053 98° East 535 616 25,000 -339 Descending Cleveland Center
Sun 03:28:12 PM 40.3578 -77.6233 99° East 519 597 24,600 -823 Descending Cleveland Center
Sun 03:29:14 PM 40.3319 -77.4347 100° East 527 606 23,300 -1,488 Descending Cleveland Center
Sun 03:30:21 PM 40.2967 -77.2019 101° East 510 587 21,400 -1,606 Descending New York Center
Sun 03:31:21 PM 40.2711 -77.0225 101° East 510 587 19,900 -1,686 Descending New York Center
Sun 03:32:22 PM 40.2464 -76.8572 101° East 481 554 18,000 -2,016 Descending New York Center
Sun 03:33:23 PM 40.2250 -76.7031 100° East 444 511 15,800 -2,319 Descending New York Center
Sun 03:34:21 PM 40.2050 -76.5600 100° East 434 499 13,400 -2,186 Descending New York Center
Sun 03:35:21 PM 40.1814 -76.3975 101° East 440 506 11,500 -1,200 Descending New York Center
Sun 03:36:21 PM 40.1561 -76.2272 101° East 440 506 11,000 -885 Descending New York Center
Sun 03:37:23 PM 40.1372 -76.0953 101° East 399 459 9,700 -1,400 Descending New York Center
Sun 03:38:21 PM 40.1208 -75.9936 102° East 336 387 8,200 -857 Descending New York Center
Sun 03:39:22 PM 40.1031 -75.8756 101° East 305 351 8,000 -393 Descending New York Center
Sun 03:40:23 PM 40.1322 -75.7828 68° East 289 333 7,400 -1,008 Descending New York Center
Sun 03:41:21 PM 40.1639 -75.6708 70° East 289 333 6,000 -1,210 Descending New York Center
Sun 03:42:22 PM 40.1886 -75.5803 70° East 288 331 5,000 -504 Descending New York Center
Sun 03:43:20 PM 40.2014 -75.4697 81° East 276 318 5,000 -504 Level New York Center
Sun 03:44:21 PM 40.2178 -75.3675 78° East 276 318 4,000 -492 Descending New York Center
Sun 03:45:22 PM 40.2275 -75.2756 82° East 287 330 4,000  Level New York Center
Sun 03:46:23 PM 40.2400 -75.1706 81° East 287 330 4,000 -252 Level New York Center
Sun 03:47:21 PM 40.2522 -75.0597 82° East 287 330 3,500 -1,008 Descending New York Center
Sun 03:48:22 PM 40.2622 -74.9597 83° East 287 330 2,000 -738 Descending New York Center
Sun 03:49:23 PM 40.2975 -74.9047 50° Northeast 287 330 2,000 -286 Level New York Center
Sun 03:51:10 PM 40.3333 -74.8000 66° East 124 143 1,200 -431 Descending Philadelphia TRACON
Sun 03:52:10 PM 40.3000 -74.7833 159° South 124 143 800 -400 Descending Philadelphia TRACON
Sun 03:54:00 PM 40.2667 -74.8000 78° East  Level FlightAware Approximate
Sun 04:01:00 PM 40.2767 -74.8135 78° East  Level Estimated

Login

Don't have an account? Register now (free) for customized features, flight alerts, and more!